createdAt,value
2018-06-28T00:00:02.109Z,9.17
2018-06-28T00:02:30.354Z,9.10
2018-06-28T00:04:59.614Z,9.80
2018-06-28T00:07:27.817Z,9.70
2018-06-28T00:09:56.002Z,9.80
2018-06-28T00:12:24.159Z,9.80
2018-06-28T00:14:52.558Z,9.20
2018-06-28T00:17:21.233Z,9.93
2018-06-28T00:19:49.491Z,10.37
2018-06-28T00:22:17.742Z,10.07
2018-06-28T00:24:46.167Z,10.13
2018-06-28T00:27:14.375Z,10.00
2018-06-28T00:29:42.536Z,10.23
2018-06-28T00:32:10.785Z,10.23
2018-06-28T00:34:39.112Z,10.13
2018-06-28T00:37:07.335Z,11.10
2018-06-28T00:39:35.531Z,10.13
2018-06-28T00:42:03.666Z,9.93
2018-06-28T00:44:32.037Z,10.17
2018-06-28T00:47:00.338Z,11.10
2018-06-28T00:49:28.556Z,10.77
2018-06-28T00:51:56.871Z,10.60
2018-06-28T00:54:25.253Z,10.87
2018-06-28T00:56:53.591Z,10.67
2018-06-28T00:59:21.828Z,10.53
2018-06-28T01:01:50.497Z,11.40
2018-06-28T01:04:18.768Z,10.57
2018-06-28T01:06:46.826Z,11.60
2018-06-28T01:09:15.057Z,10.77
2018-06-28T01:11:43.297Z,12.17
2018-06-28T01:14:11.516Z,10.70
2018-06-28T01:16:39.831Z,11.10
2018-06-28T01:19:08.760Z,10.50
2018-06-28T01:21:36.959Z,11.17
2018-06-28T01:24:05.598Z,11.60
2018-06-28T01:26:34.185Z,11.80
2018-06-28T01:29:02.385Z,11.50
2018-06-28T01:31:30.627Z,11.57
2018-06-28T01:33:58.623Z,11.80
2018-06-28T01:36:27.071Z,11.47
2018-06-28T01:38:55.370Z,11.27
2018-06-28T01:41:23.560Z,11.13
2018-06-28T01:43:51.894Z,11.50
2018-06-28T01:46:20.320Z,11.73
2018-06-28T01:48:48.686Z,11.70
2018-06-28T01:51:16.890Z,11.83
2018-06-28T01:53:45.088Z,11.27
2018-06-28T01:56:13.437Z,11.57
2018-06-28T01:58:41.646Z,11.83
2018-06-28T02:01:09.839Z,11.30
2018-06-28T02:03:38.096Z,12.03
2018-06-28T02:06:06.377Z,11.17
2018-06-28T02:08:34.621Z,10.57
2018-06-28T02:11:02.831Z,11.80
2018-06-28T02:13:31.049Z,12.33
2018-06-28T02:15:59.466Z,12.07
2018-06-28T02:18:27.686Z,12.57
2018-06-28T02:20:55.976Z,11.67
2018-06-28T02:23:24.239Z,11.60
2018-06-28T02:25:52.575Z,11.77
2018-06-28T02:28:20.937Z,12.27
2018-06-28T02:30:49.184Z,11.47
2018-06-28T02:33:17.359Z,12.00
2018-06-28T02:35:45.615Z,11.73
2018-06-28T02:38:13.937Z,12.37
2018-06-28T02:40:42.281Z,11.57
2018-06-28T02:43:10.494Z,11.80
2018-06-28T02:45:38.760Z,11.97
2018-06-28T02:48:07.016Z,12.10
2018-06-28T02:50:35.362Z,11.47
2018-06-28T02:53:03.568Z,12.60
2018-06-28T02:55:31.871Z,12.67
2018-06-28T02:58:00.111Z,12.23
2018-06-28T03:00:28.296Z,11.07
2018-06-28T03:02:56.548Z,11.70
2018-06-28T03:05:24.976Z,11.43
2018-06-28T03:07:53.271Z,12.07
2018-06-28T03:10:21.465Z,11.73
2018-06-28T03:12:49.660Z,10.83
2018-06-28T03:15:18.082Z,11.47
2018-06-28T03:17:46.360Z,11.57
2018-06-28T03:20:14.592Z,11.50
2018-06-28T03:22:42.799Z,11.93
2018-06-28T03:25:11.331Z,11.60
2018-06-28T03:27:39.615Z,11.87
2018-06-28T03:30:07.838Z,11.50
2018-06-28T03:32:36.176Z,11.90
2018-06-28T03:35:04.566Z,11.37
2018-06-28T03:37:32.819Z,11.67
2018-06-28T03:40:01.078Z,11.07
2018-06-28T03:42:29.315Z,11.37
2018-06-28T03:44:57.626Z,11.53
2018-06-28T03:47:25.846Z,12.27
2018-06-28T03:49:54.106Z,11.83
2018-06-28T03:52:22.294Z,11.63
2018-06-28T03:54:50.787Z,11.07
2018-06-28T03:57:19.009Z,11.57
2018-06-28T03:59:47.240Z,12.00
2018-06-28T04:02:15.443Z,11.40
2018-06-28T04:04:44.752Z,12.30
2018-06-28T04:07:12.975Z,10.80
2018-06-28T04:09:41.411Z,10.93
2018-06-28T04:12:09.668Z,11.30
2018-06-28T04:14:38.221Z,11.17
2018-06-28T04:17:06.452Z,11.70
2018-06-28T04:19:34.768Z,10.67
2018-06-28T04:22:02.986Z,10.93
2018-06-28T04:24:31.506Z,10.30
2018-06-28T04:26:59.681Z,10.63
2018-06-28T04:29:27.847Z,10.90
2018-06-28T04:31:56.101Z,11.40
2018-06-28T04:34:24.536Z,11.27
2018-06-28T04:36:52.769Z,11.73
2018-06-28T04:39:21.037Z,11.00
2018-06-28T04:41:49.305Z,11.15
2018-06-28T04:44:17.629Z,11.47
2018-06-28T04:46:46.573Z,11.30
2018-06-28T04:49:14.841Z,11.43
2018-06-28T04:51:43.028Z,11.37
2018-06-28T04:54:11.444Z,11.87
2018-06-28T04:56:39.783Z,10.43
2018-06-28T04:59:08.032Z,11.77
2018-06-28T05:01:36.223Z,11.57
2018-06-28T05:04:04.592Z,11.93
2018-06-28T05:06:32.922Z,12.20
2018-06-28T05:09:01.182Z,11.93
2018-06-28T05:11:29.476Z,12.23
2018-06-28T05:13:57.682Z,11.90
2018-06-28T05:16:26.035Z,11.90
2018-06-28T05:18:54.270Z,11.77
2018-06-28T05:21:22.658Z,11.50
2018-06-28T05:23:51.074Z,12.17
2018-06-28T05:26:19.324Z,12.47
2018-06-28T05:28:47.607Z,11.60
2018-06-28T05:31:15.955Z,11.97
2018-06-28T05:33:44.161Z,11.73
2018-06-28T05:36:13.510Z,12.10
2018-06-28T05:38:41.773Z,12.77
2018-06-28T05:41:10.067Z,10.97
2018-06-28T05:43:38.264Z,11.93
2018-06-28T05:46:06.669Z,11.10
2018-06-28T05:48:34.923Z,12.50
2018-06-28T05:51:03.159Z,11.90
2018-06-28T05:53:31.333Z,13.20
2018-06-28T05:56:00.614Z,12.50
2018-06-28T05:58:28.880Z,12.17
2018-06-28T06:00:57.381Z,12.13
2018-06-28T06:03:25.591Z,12.57
2018-06-28T06:05:53.838Z,12.83
2018-06-28T06:08:22.029Z,13.47
2018-06-28T06:10:50.270Z,12.10
2018-06-28T06:13:18.494Z,12.77
2018-06-28T06:15:46.689Z,12.63
2018-06-28T06:18:14.884Z,12.50
2018-06-28T06:20:43.186Z,12.97
2018-06-28T06:23:11.467Z,12.27
2018-06-28T06:25:39.777Z,12.60
2018-06-28T06:28:07.999Z,12.30
2018-06-28T06:30:36.311Z,12.80
2018-06-28T06:33:04.562Z,12.83
2018-06-28T06:35:32.867Z,11.37
2018-06-28T06:38:01.109Z,11.77
2018-06-28T06:40:29.457Z,11.83
2018-06-28T06:42:57.731Z,12.10
2018-06-28T06:45:26.219Z,12.40
2018-06-28T06:47:54.476Z,11.50
2018-06-28T06:50:22.665Z,11.67
2018-06-28T06:52:50.885Z,12.60
2018-06-28T06:55:19.099Z,12.10
2018-06-28T06:57:47.332Z,10.53
2018-06-28T07:00:15.599Z,11.33
2018-06-28T07:02:43.831Z,11.80
2018-06-28T07:05:12.140Z,12.40
2018-06-28T07:07:40.330Z,11.90
2018-06-28T07:10:08.650Z,11.53
2018-06-28T07:12:37.483Z,11.30
2018-06-28T07:15:05.953Z,11.97
2018-06-28T07:17:34.244Z,12.33
2018-06-28T07:20:02.495Z,11.53
2018-06-28T07:22:30.696Z,11.07
2018-06-28T07:24:58.970Z,11.60
2018-06-28T07:27:27.201Z,12.00
2018-06-28T07:29:55.392Z,9.83
2018-06-28T07:32:23.651Z,11.07
2018-06-28T07:34:51.865Z,10.23
2018-06-28T07:37:20.070Z,9.80
2018-06-28T07:39:48.284Z,9.43
2018-06-28T07:42:16.477Z,10.30
2018-06-28T07:44:44.734Z,10.23
2018-06-28T07:47:12.996Z,10.63
2018-06-28T07:49:41.180Z,11.87
2018-06-28T07:52:09.386Z,11.27
2018-06-28T07:54:38.423Z,11.13
2018-06-28T07:57:06.664Z,11.67
2018-06-28T07:59:34.933Z,12.30
2018-06-28T08:02:03.137Z,11.20
2018-06-28T08:04:31.430Z,10.63
2018-06-28T08:06:59.703Z,10.95
2018-06-28T08:09:27.926Z,11.07
2018-06-28T08:11:56.192Z,11.43
2018-06-28T08:14:24.372Z,11.87
2018-06-28T08:16:53.039Z,11.73
2018-06-28T08:19:21.275Z,11.77
2018-06-28T08:21:49.522Z,10.87
2018-06-28T08:24:17.753Z,10.97
2018-06-28T08:26:46.071Z,11.93
2018-06-28T08:29:14.274Z,12.20
2018-06-28T08:31:42.540Z,12.07
2018-06-28T08:34:10.794Z,11.67
2018-06-28T08:36:40.193Z,10.37
2018-06-28T08:39:09.439Z,11.37
2018-06-28T08:41:37.785Z,12.13
2018-06-28T08:44:06.329Z,11.93
2018-06-28T08:46:35.314Z,12.10
2018-06-28T08:49:03.652Z,11.83
2018-06-28T08:51:31.813Z,13.17
2018-06-28T08:54:00.000Z,12.43
2018-06-28T08:56:28.451Z,12.77
2018-06-28T08:58:56.624Z,12.27
2018-06-28T09:01:28.053Z,12.63
2018-06-28T09:03:56.374Z,13.00
2018-06-28T09:06:24.683Z,12.20
2018-06-28T09:08:53.346Z,12.43
2018-06-28T09:11:22.521Z,12.30
2018-06-28T09:13:50.739Z,12.87
2018-06-28T09:16:19.111Z,12.10
2018-06-28T09:18:47.295Z,12.30
2018-06-28T09:21:15.486Z,12.10
2018-06-28T09:23:43.707Z,12.57
2018-06-28T09:26:12.826Z,11.80
2018-06-28T09:28:41.053Z,12.23
2018-06-28T09:31:09.262Z,12.00
2018-06-28T09:33:37.567Z,11.77
2018-06-28T09:36:06.038Z,12.13
2018-06-28T09:38:34.219Z,10.90
2018-06-28T09:41:02.508Z,12.30
2018-06-28T09:43:30.764Z,12.70
2018-06-28T09:45:59.101Z,11.27
2018-06-28T09:48:27.322Z,11.63
2018-06-28T09:50:55.500Z,11.77
2018-06-28T09:53:23.750Z,11.07
2018-06-28T09:55:52.125Z,10.03
2018-06-28T09:58:20.325Z,9.10
2018-06-28T10:00:48.565Z,10.10
2018-06-28T10:03:16.723Z,10.37
2018-06-28T10:05:45.055Z,8.87
2018-06-28T10:08:13.297Z,7.30
2018-06-28T10:10:41.434Z,9.20
2018-06-28T10:13:09.670Z,8.50
2018-06-28T10:15:37.962Z,6.43
2018-06-28T10:18:06.195Z,7.50
2018-06-28T10:20:34.329Z,9.23
2018-06-28T10:23:02.586Z,11.70
2018-06-28T10:25:30.808Z,11.53
2018-06-28T10:27:59.034Z,11.47
2018-06-28T10:30:26.997Z,12.03
2018-06-28T10:32:55.343Z,12.10
2018-06-28T10:35:23.744Z,12.53
2018-06-28T10:37:51.949Z,12.33
2018-06-28T10:40:20.186Z,11.40
2018-06-28T10:42:48.375Z,11.40
2018-06-28T10:45:16.686Z,10.73
2018-06-28T10:47:45.053Z,11.83
2018-06-28T10:50:13.258Z,11.80
2018-06-28T10:52:41.433Z,11.43
2018-06-28T10:55:09.811Z,11.87
2018-06-28T10:57:37.995Z,10.70
2018-06-28T11:00:06.274Z,10.60
2018-06-28T11:02:34.592Z,10.00
2018-06-28T11:05:02.874Z,9.10
2018-06-28T11:07:31.092Z,9.57
2018-06-28T11:09:59.329Z,9.93
2018-06-28T11:12:27.622Z,8.80
2018-06-28T11:14:55.980Z,9.00
2018-06-28T11:17:24.271Z,9.00
2018-06-28T11:19:52.535Z,9.90
2018-06-28T11:22:20.907Z,9.67
2018-06-28T11:24:49.197Z,8.53
2018-06-28T11:27:17.417Z,8.10
2018-06-28T11:29:45.668Z,7.93
2018-06-28T11:32:13.863Z,7.30
2018-06-28T11:34:42.085Z,7.00
2018-06-28T11:37:10.279Z,6.17
2018-06-28T11:39:38.520Z,6.57
2018-06-28T11:42:06.687Z,5.83
2018-06-28T11:44:34.997Z,5.87
2018-06-28T11:47:03.171Z,6.47
2018-06-28T11:49:31.354Z,6.13
2018-06-28T11:51:59.561Z,4.87
2018-06-28T11:54:27.947Z,4.93
2018-06-28T11:56:55.998Z,5.27
2018-06-28T11:59:24.327Z,5.40
2018-06-28T12:01:52.999Z,4.70
2018-06-28T12:04:21.256Z,3.97
2018-06-28T12:06:49.422Z,4.47
2018-06-28T12:09:17.583Z,4.43
2018-06-28T12:11:45.790Z,4.10
2018-06-28T12:14:13.906Z,3.50
2018-06-28T12:16:42.154Z,3.57
2018-06-28T12:19:10.377Z,3.60
2018-06-28T12:21:38.625Z,2.73
2018-06-28T12:24:06.978Z,2.67
2018-06-28T12:26:35.277Z,3.00
2018-06-28T12:29:03.526Z,2.73
2018-06-28T12:31:31.792Z,2.63
2018-06-28T12:34:00.015Z,2.50
2018-06-28T12:36:28.329Z,2.03
2018-06-28T12:38:56.248Z,2.20
2018-06-28T12:41:24.640Z,2.47
2018-06-28T12:43:52.814Z,2.33
2018-06-28T12:47:29.123Z,2.07
2018-06-28T12:49:57.380Z,2.63
2018-06-28T12:52:48.747Z,2.40
2018-06-28T12:55:18.127Z,2.17
2018-06-28T12:57:46.643Z,2.17
2018-06-28T13:00:15.334Z,2.83
2018-06-28T13:02:43.858Z,2.50
2018-06-28T13:05:13.189Z,2.00
2018-06-28T13:07:41.526Z,2.20
2018-06-28T13:10:11.297Z,1.83
2018-06-28T13:12:39.626Z,2.50
2018-06-28T13:15:09.572Z,2.20
2018-06-28T13:17:38.629Z,2.57
2018-06-28T13:20:07.838Z,2.40
2018-06-28T13:22:36.225Z,2.50
2018-06-28T13:25:05.253Z,2.13
2018-06-28T13:27:33.608Z,2.70
2018-06-28T13:30:02.125Z,2.20
2018-06-28T13:32:30.341Z,2.10
2018-06-28T13:34:58.582Z,2.30
2018-06-28T13:37:26.838Z,2.20
2018-06-28T13:39:55.100Z,2.00
2018-06-28T13:42:23.366Z,2.50
2018-06-28T13:44:51.824Z,2.00
2018-06-28T13:47:20.318Z,2.00
2018-06-28T13:49:49.490Z,1.70
2018-06-28T13:52:17.655Z,1.80
2018-06-28T13:54:45.909Z,2.30
2018-06-28T13:57:14.155Z,1.83
2018-06-28T13:59:42.414Z,2.50
2018-06-28T14:02:10.582Z,2.20
2018-06-28T14:04:39.059Z,1.93
2018-06-28T14:07:07.309Z,2.40
2018-06-28T14:09:35.727Z,2.33
2018-06-28T14:12:03.999Z,2.00
2018-06-28T14:14:32.322Z,2.07
2018-06-28T14:17:00.567Z,2.47
2018-06-28T14:19:28.832Z,2.67
2018-06-28T14:21:57.059Z,2.40
2018-06-28T14:24:25.651Z,2.27
2018-06-28T14:26:53.839Z,2.20
2018-06-28T14:29:22.090Z,2.50
2018-06-28T14:31:50.366Z,2.13
2018-06-28T14:34:18.580Z,2.73
2018-06-28T14:36:46.818Z,2.50
2018-06-28T14:39:15.055Z,2.40
2018-06-28T14:41:43.301Z,3.27
2018-06-28T14:44:11.498Z,2.23
2018-06-28T14:46:39.888Z,2.73
2018-06-28T14:49:08.106Z,2.53
2018-06-28T14:51:36.315Z,2.37
2018-06-28T14:54:04.557Z,2.37
2018-06-28T14:56:33.004Z,2.50
2018-06-28T14:59:01.217Z,2.63
2018-06-28T15:01:29.473Z,2.40
2018-06-28T15:03:57.729Z,2.43
2018-06-28T15:06:25.695Z,2.87
2018-06-28T15:08:53.922Z,2.53
2018-06-28T15:11:22.120Z,3.10
2018-06-28T15:13:50.301Z,2.90
2018-06-28T15:16:18.609Z,2.70
2018-06-28T15:18:47.148Z,2.90
2018-06-28T15:21:15.379Z,2.97
2018-06-28T15:23:43.584Z,3.03
2018-06-28T15:26:12.872Z,2.67
2018-06-28T15:28:41.032Z,2.73
2018-06-28T15:31:09.283Z,3.00
2018-06-28T15:33:37.484Z,3.37
2018-06-28T15:36:05.838Z,2.83
2018-06-28T15:38:34.074Z,2.57
2018-06-28T15:41:02.298Z,2.70
2018-06-28T15:43:30.443Z,2.60
2018-06-28T15:45:58.663Z,2.70
2018-06-28T15:48:26.867Z,2.67
2018-06-28T15:50:55.211Z,2.90
2018-06-28T15:53:23.477Z,2.47
2018-06-28T15:55:52.910Z,2.87
2018-06-28T15:58:21.501Z,2.90
2018-06-28T16:00:49.966Z,2.87
2018-06-28T16:03:18.230Z,3.10
2018-06-28T16:05:46.716Z,2.93
2018-06-28T16:08:15.045Z,2.70
2018-06-28T16:10:43.303Z,2.57
2018-06-28T16:13:11.529Z,2.87
2018-06-28T16:15:40.104Z,2.90
2018-06-28T16:18:08.372Z,3.00
2018-06-28T16:20:36.651Z,2.87
2018-06-28T16:23:04.870Z,3.30
2018-06-28T16:25:33.156Z,3.10
2018-06-28T16:28:01.424Z,2.83
2018-06-28T16:30:29.611Z,2.47
2018-06-28T16:32:57.834Z,2.37
2018-06-28T16:35:26.262Z,2.57
2018-06-28T16:37:54.512Z,3.03
2018-06-28T16:40:22.749Z,2.70
2018-06-28T16:42:51.018Z,2.60
2018-06-28T16:45:19.336Z,2.73
2018-06-28T16:47:47.504Z,2.40
2018-06-28T16:50:15.739Z,2.40
2018-06-28T16:52:43.919Z,2.17
2018-06-28T16:55:14.272Z,2.10
2018-06-28T16:57:42.579Z,1.77
2018-06-28T17:00:10.770Z,1.87
2018-06-28T17:02:38.980Z,1.97
2018-06-28T17:05:07.843Z,1.95
2018-06-28T17:07:36.058Z,1.90
2018-06-28T17:10:04.591Z,4.43
2018-06-28T17:12:32.801Z,2.07
2018-06-28T17:15:01.066Z,2.23
2018-06-28T17:17:29.267Z,1.83
2018-06-28T17:19:57.463Z,1.87
2018-06-28T17:22:25.704Z,1.60
2018-06-28T17:24:54.992Z,1.60
2018-06-28T17:27:23.234Z,1.47
2018-06-28T17:29:51.451Z,2.07
2018-06-28T17:32:19.669Z,1.93
2018-06-28T17:34:47.956Z,2.37
2018-06-28T17:37:16.222Z,3.40
2018-06-28T17:39:44.590Z,4.83
2018-06-28T17:42:13.224Z,3.30
2018-06-28T17:44:41.628Z,2.10
2018-06-28T17:47:09.860Z,2.37
2018-06-28T17:49:38.140Z,1.80
2018-06-28T17:52:06.446Z,1.80
2018-06-28T17:54:34.970Z,2.27
2018-06-28T17:57:03.234Z,2.20
2018-06-28T17:59:31.405Z,2.37
2018-06-28T18:01:59.629Z,2.40
2018-06-28T18:04:27.844Z,2.30
2018-06-28T18:06:56.134Z,2.33
2018-06-28T18:09:24.439Z,2.30
2018-06-28T18:11:52.627Z,2.50
2018-06-28T18:14:20.792Z,2.23
2018-06-28T18:16:49.011Z,2.57
2018-06-28T18:19:17.281Z,2.17
2018-06-28T18:21:45.435Z,2.00
2018-06-28T18:24:13.670Z,2.63
2018-06-28T18:26:42.159Z,2.00
2018-06-28T18:29:10.341Z,1.90
2018-06-28T18:31:38.646Z,1.80
2018-06-28T18:34:06.885Z,1.77
2018-06-28T18:36:36.189Z,1.83
2018-06-28T18:39:07.786Z,1.87
2018-06-28T18:41:36.246Z,1.47
2018-06-28T18:44:04.416Z,1.53
2018-06-28T18:46:32.825Z,1.50
2018-06-28T18:49:01.047Z,1.37
2018-06-28T18:51:29.259Z,1.40
2018-06-28T18:53:57.443Z,1.20
2018-06-28T18:56:26.730Z,1.37
2018-06-28T18:58:54.990Z,1.27
2018-06-28T19:01:23.252Z,1.37
2018-06-28T19:03:51.563Z,1.33
2018-06-28T19:06:19.856Z,1.00
2018-06-28T19:08:48.201Z,1.20
2018-06-28T19:11:16.401Z,1.30
2018-06-28T19:13:50.046Z,1.40
2018-06-28T19:16:23.815Z,1.63
2018-06-28T19:18:52.043Z,1.70
2018-06-28T19:21:25.595Z,1.40
2018-06-28T19:23:53.591Z,1.50
2018-06-28T19:26:22.008Z,1.33
2018-06-28T19:28:50.281Z,1.93
2018-06-28T19:31:24.021Z,1.90
2018-06-28T19:33:52.201Z,1.40
2018-06-28T19:36:20.644Z,1.60
2018-06-28T19:38:54.356Z,1.47
2018-06-28T19:41:27.934Z,1.40
2018-06-28T19:43:56.885Z,1.50
2018-06-28T19:46:25.211Z,1.40
2018-06-28T19:48:53.380Z,1.50
2018-06-28T19:53:30.941Z,1.47
2018-06-28T19:55:59.236Z,1.70
2018-06-28T19:58:27.499Z,1.40
2018-06-28T20:01:01.238Z,1.13
2018-06-28T20:04:38.250Z,1.87
2018-06-28T20:07:06.477Z,1.27
2018-06-28T20:09:34.916Z,1.30
2018-06-28T20:12:03.294Z,1.30
2018-06-28T20:14:38.079Z,1.07
2018-06-28T20:17:11.723Z,1.27
2018-06-28T20:19:45.417Z,1.03
2018-06-28T20:22:13.650Z,1.07
2018-06-28T20:24:42.048Z,1.47
2018-06-28T20:27:15.576Z,1.40
2018-06-28T20:29:49.099Z,1.50
2018-06-28T20:32:22.815Z,1.10
2018-06-28T20:34:51.079Z,1.03
2018-06-28T20:37:19.342Z,1.27
2018-06-28T20:39:47.530Z,1.30
2018-06-28T20:42:15.724Z,1.30
2018-06-28T20:44:43.950Z,1.23
2018-06-28T20:47:12.158Z,0.97
2018-06-28T20:49:40.529Z,1.30
2018-06-28T20:52:08.850Z,1.40
2018-06-28T20:54:38.183Z,1.43
2018-06-28T20:57:06.590Z,1.97
2018-06-28T20:59:34.846Z,1.20
2018-06-28T21:02:02.998Z,1.33
2018-06-28T21:04:31.506Z,1.20
2018-06-28T21:06:59.693Z,1.20
2018-06-28T21:09:27.872Z,1.20
2018-06-28T21:11:56.072Z,1.30
2018-06-28T21:14:24.463Z,1.30
2018-06-28T21:16:52.673Z,1.07
2018-06-28T21:19:20.944Z,1.40
2018-06-28T21:21:49.144Z,1.20
2018-06-28T21:24:17.540Z,1.50
2018-06-28T21:26:45.843Z,1.37
2018-06-28T21:29:14.026Z,1.57
2018-06-28T21:31:42.245Z,1.53
2018-06-28T21:34:10.478Z,1.50
2018-06-28T21:36:38.807Z,1.40
2018-06-28T21:39:08.239Z,1.60
2018-06-28T21:41:36.502Z,1.60
2018-06-28T21:44:04.721Z,1.43
2018-06-28T21:46:33.272Z,1.40
2018-06-28T21:49:01.472Z,1.60
2018-06-28T21:51:29.678Z,1.60
2018-06-28T21:53:57.977Z,1.90
2018-06-28T21:56:26.255Z,1.97
2018-06-28T21:58:54.481Z,1.70
2018-06-28T22:01:22.886Z,1.63
2018-06-28T22:03:51.115Z,1.70
2018-06-28T22:06:19.338Z,1.50
2018-06-28T22:08:47.604Z,1.67
2018-06-28T22:11:15.815Z,1.70
2018-06-28T22:13:43.990Z,1.70
2018-06-28T22:16:12.236Z,1.57
2018-06-28T22:18:40.441Z,1.97
2018-06-28T22:21:08.702Z,2.00
2018-06-28T22:23:36.917Z,2.20
2018-06-28T22:26:05.322Z,2.27
2018-06-28T22:28:33.605Z,2.30
2018-06-28T22:31:01.882Z,2.60
2018-06-28T22:33:30.035Z,2.50
2018-06-28T22:35:58.422Z,2.70
2018-06-28T22:38:26.609Z,2.40
2018-06-28T22:40:54.876Z,2.50
2018-06-28T22:43:23.220Z,2.60
2018-06-28T22:45:51.535Z,2.43
2018-06-28T22:48:19.750Z,2.50
2018-06-28T22:50:48.028Z,2.43
2018-06-28T22:53:16.258Z,2.20
2018-06-28T22:55:44.667Z,2.50
2018-06-28T22:58:12.963Z,2.50
2018-06-28T23:00:41.145Z,2.50
2018-06-28T23:03:09.308Z,2.30
2018-06-28T23:05:37.553Z,2.63
2018-06-28T23:08:05.797Z,2.27
2018-06-28T23:10:33.991Z,2.50
2018-06-28T23:13:02.181Z,2.20
2018-06-28T23:15:30.446Z,2.13
2018-06-28T23:17:58.672Z,2.20
2018-06-28T23:20:26.977Z,2.00
2018-06-28T23:22:55.195Z,2.17
2018-06-28T23:25:23.229Z,2.30
2018-06-28T23:27:51.892Z,2.10
2018-06-28T23:30:20.273Z,2.43
2018-06-28T23:32:48.548Z,2.50
2018-06-28T23:35:16.810Z,2.47
2018-06-28T23:37:45.027Z,2.30
2018-06-28T23:40:13.202Z,2.40
2018-06-28T23:42:41.183Z,2.20
2018-06-28T23:45:09.970Z,2.23
2018-06-28T23:47:38.355Z,2.40
2018-06-28T23:50:07.832Z,2.10
2018-06-28T23:52:36.081Z,2.73
2018-06-28T23:55:04.977Z,2.27
2018-06-28T23:57:33.172Z,2.30
